Time;durP1;ratioP1;P1;durP2;ratioP2;P2;SDS_P1;SDS_P2;PMS_P1;PMS_P2;Temp;Humidity;BMP_temperature;BMP_pressure;BME280_temperature;BME280_humidity;BME280_pressure;Samples;Min_cycle;Max_cycle;Signal;HPM_P1;HPM_P2
2022/11/10 00:02:15;;;;;;;12.50;3.80;;;;;;;13.04;88.26;100966.66;5010013;28;20205;-65
2022/11/10 00:04:43;;;;;;;10.27;3.70;;;;;;;13.01;87.93;100958.16;5009590;28;20783;-64
2022/11/10 00:07:10;;;;;;;12.90;2.97;;;;;;;12.96;88.31;100969.25;5013708;28;20209;-66
2022/11/10 00:09:40;;;;;;;8.00;3.00;;;;;;;13.02;88.40;100968.63;5017262;28;20245;-65
2022/11/10 00:12:08;;;;;;;11.87;3.30;;;;;;;13.11;87.38;100972.19;5015576;28;20429;-65
2022/11/10 00:17:21;;;;;;;5.43;2.40;;;;;;;13.07;86.39;100970.84;5034223;28;20219;-65
2022/11/10 00:19:49;;;;;;;11.10;3.00;;;;;;;13.02;87.20;100973.94;5016200;28;20220;-65
2022/11/10 00:22:16;;;;;;;11.40;2.80;;;;;;;13.06;86.88;100972.69;5021963;28;20236;-65
2022/11/10 00:24:46;;;;;;;9.57;2.73;;;;;;;13.07;86.52;100979.69;5022341;28;20205;-65
2022/11/10 00:27:14;;;;;;;6.33;2.47;;;;;;;13.18;86.59;100978.66;5020052;28;20359;-64
2022/11/10 00:29:42;;;;;;;10.27;3.67;;;;;;;13.28;85.53;100970.59;5017501;28;20615;-65
2022/11/10 00:32:10;;;;;;;6.67;2.83;;;;;;;13.37;85.02;100978.47;5018047;28;20235;-64
2022/11/10 00:34:38;;;;;;;7.23;2.10;;;;;;;13.41;84.27;100985.16;5023005;28;20209;-65
2022/11/10 00:37:06;;;;;;;6.80;2.13;;;;;;;13.44;83.81;100978.69;5021317;28;20301;-64
2022/11/10 00:39:35;;;;;;;7.00;2.63;;;;;;;13.44;83.47;100990.19;5014871;28;20237;-65
2022/11/10 00:42:05;;;;;;;9.90;3.07;;;;;;;13.43;83.07;100982.34;5028154;28;20607;-64
2022/11/10 00:44:32;;;;;;;7.13;3.80;;;;;;;13.44;83.08;100994.69;5014637;28;20822;-64
2022/11/10 00:47:00;;;;;;;8.70;4.30;;;;;;;13.41;82.91;101000.31;5010700;28;20842;-65
2022/11/10 00:49:28;;;;;;;12.13;4.37;;;;;;;13.37;83.50;101005.09;5013766;28;20233;-65
2022/11/10 00:51:56;;;;;;;9.57;3.13;;;;;;;13.31;83.92;101015.53;5014016;28;20213;-65
2022/11/10 00:54:24;;;;;;;10.70;3.70;;;;;;;13.28;83.94;101015.88;5012351;28;20554;-65
2022/11/10 00:56:52;;;;;;;7.90;3.63;;;;;;;13.33;84.15;101024.22;5008264;28;20217;-66
2022/11/10 00:59:21;;;;;;;8.47;3.70;;;;;;;13.40;83.65;101030.59;5011339;28;20209;-66
2022/11/10 01:01:49;;;;;;;8.97;3.60;;;;;;;13.39;83.14;101034.25;5013422;28;20272;-65
2022/11/10 01:04:17;;;;;;;7.90;3.20;;;;;;;13.26;82.99;101039.13;5013283;28;20215;-65
2022/11/10 01:06:46;;;;;;;7.37;2.60;;;;;;;13.15;83.46;101045.50;5013186;28;20292;-65
2022/11/10 01:09:15;;;;;;;8.50;3.03;;;;;;;13.15;83.44;101046.34;5008799;28;20276;-65
2022/11/10 01:11:42;;;;;;;8.70;2.73;;;;;;;13.10;82.93;101056.59;5014113;28;20619;-64
2022/11/10 01:14:10;;;;;;;11.17;2.90;;;;;;;13.08;83.26;101071.88;5013649;28;20223;-65
2022/11/10 01:16:40;;;;;;;5.40;2.50;;;;;;;13.01;83.47;101068.16;5017519;28;20702;-64
2022/11/10 01:19:07;;;;;;;10.07;2.53;;;;;;;13.00;84.05;101071.78;5021594;28;20244;-66
2022/11/10 01:21:35;;;;;;;9.17;2.43;;;;;;;13.04;84.11;101080.31;5019946;28;20685;-65
2022/11/10 01:24:03;;;;;;;7.07;2.53;;;;;;;13.04;84.32;101072.31;5014491;28;20209;-64
2022/11/10 01:26:31;;;;;;;12.00;2.40;;;;;;;13.11;84.11;101078.72;5012742;28;20215;-65
2022/11/10 01:28:59;;;;;;;8.50;2.83;;;;;;;13.12;83.86;101085.72;5018175;28;20292;-65
2022/11/10 01:31:27;;;;;;;12.53;3.20;;;;;;;13.11;83.42;101081.38;5015782;28;20212;-68
2022/11/10 01:33:58;;;;;;;10.23;2.70;;;;;;;13.10;83.84;101083.22;5014527;28;20291;-66
2022/11/10 01:36:26;;;;;;;10.53;2.70;;;;;;;13.17;83.61;101084.34;5019804;28;20210;-64
2022/11/10 01:38:54;;;;;;;10.90;2.80;;;;;;;13.23;83.46;101087.38;5017267;28;20307;-64
2022/11/10 01:41:22;;;;;;;9.97;2.83;;;;;;;13.24;82.83;101089.03;5013538;28;20693;-64
2022/11/10 01:43:50;;;;;;;7.87;2.60;;;;;;;13.28;82.53;101095.75;5016947;28;20581;-64
2022/11/10 01:46:18;;;;;;;11.17;2.70;;;;;;;13.26;82.65;101100.41;5011003;28;20220;-64
2022/11/10 01:48:48;;;;;;;9.67;2.43;;;;;;;13.18;82.79;101101.16;5014612;28;20209;-64
2022/11/10 01:51:20;;;;;;;8.97;2.90;;;;;;;13.05;82.62;101101.47;5014076;28;20209;-64
2022/11/10 01:53:53;;;;;;;10.43;2.87;;;;;;;12.92;83.96;101108.97;5012696;28;20214;-65
2022/11/10 01:56:24;;;;;;;11.23;3.07;;;;;;;12.94;84.11;101098.97;5017033;28;20213;-65
2022/11/10 01:58:56;;;;;;;7.90;2.60;;;;;;;12.96;84.13;101107.66;5009601;28;20217;-64
2022/11/10 02:01:24;;;;;;;11.87;3.90;;;;;;;12.98;83.84;101099.53;5019821;28;20214;-64
2022/11/10 02:03:55;;;;;;;5.90;2.60;;;;;;;13.05;83.72;101109.44;5010089;28;20201;-65
2022/11/10 02:06:28;;;;;;;11.10;3.37;;;;;;;13.06;83.08;101113.78;5013915;28;20210;-65
2022/11/10 02:08:57;;;;;;;8.87;2.80;;;;;;;12.94;83.31;101112.28;5012278;28;20274;-63
2022/11/10 02:11:25;;;;;;;7.53;2.77;;;;;;;12.87;83.65;101102.41;5018540;28;20821;-64
2022/11/10 02:13:53;;;;;;;9.27;3.13;;;;;;;12.84;83.65;101095.53;5019152;28;20696;-65
2022/11/10 02:16:22;;;;;;;8.83;3.43;;;;;;;12.78;83.80;101101.44;5013215;28;20719;-63
2022/11/10 02:18:49;;;;;;;10.10;2.97;;;;;;;12.73;83.98;101103.72;5018820;28;20292;-63
2022/11/10 02:21:20;;;;;;;10.70;2.97;;;;;;;12.70;84.21;101107.50;5024008;28;20197;-64
2022/11/10 02:23:52;;;;;;;11.23;3.57;;;;;;;12.64;84.67;101110.75;5011558;28;20216;-64
2022/11/10 02:26:23;;;;;;;11.20;3.50;;;;;;;12.61;84.19;101119.03;5013449;28;20410;-64
2022/11/10 02:28:50;;;;;;;10.97;3.20;;;;;;;12.66;84.02;101121.28;5020279;28;20213;-64
2022/11/10 02:31:18;;;;;;;13.93;3.00;;;;;;;12.72;83.38;101126.00;5017268;28;20229;-64
2022/11/10 02:33:46;;;;;;;8.40;3.27;;;;;;;12.61;83.06;101134.16;5005526;28;20239;-65
2022/11/10 02:36:14;;;;;;;12.27;3.50;;;;;;;12.59;83.63;101131.63;5019179;28;20220;-64
2022/11/10 02:38:44;;;;;;;9.03;2.83;;;;;;;12.55;83.10;101135.59;5009525;28;20686;-65
2022/11/10 02:41:11;;;;;;;8.87;3.03;;;;;;;12.60;82.93;101128.00;5016462;28;20236;-65
2022/11/10 02:43:39;;;;;;;7.20;2.90;;;;;;;12.63;82.61;101137.50;5014276;28;20271;-64
2022/11/10 02:46:07;;;;;;;7.67;3.33;;;;;;;12.67;82.50;101133.56;5012658;28;20247;-65
2022/11/10 02:48:35;;;;;;;14.13;3.90;;;;;;;12.63;82.61;101135.69;5013460;28;20224;-64
2022/11/10 02:51:03;;;;;;;13.37;3.73;;;;;;;12.58;83.56;101137.09;5021121;28;20229;-66
2022/11/10 02:53:30;;;;;;;10.40;4.17;;;;;;;12.56;83.81;101136.41;5015529;28;20210;-66
2022/11/10 02:55:59;;;;;;;9.93;4.00;;;;;;;12.55;83.68;101130.25;5011580;28;20224;-65
2022/11/10 02:58:27;;;;;;;10.23;3.60;;;;;;;12.58;83.64;101118.47;5012129;28;20618;-65
2022/11/10 03:00:55;;;;;;;10.23;4.10;;;;;;;12.59;83.57;101136.13;5017601;28;20452;-65
2022/11/10 03:03:23;;;;;;;10.33;4.13;;;;;;;12.63;82.95;101132.19;5008444;28;20244;-65
2022/11/10 03:05:51;;;;;;;11.57;3.40;;;;;;;12.67;82.25;101133.56;5015095;28;20300;-66
2022/11/10 03:08:19;;;;;;;11.00;3.80;;;;;;;12.71;81.94;101140.28;5013471;28;20213;-65
2022/11/10 03:10:47;;;;;;;15.40;4.07;;;;;;;12.65;81.28;101140.88;5018670;28;20278;-64
2022/11/10 03:13:16;;;;;;;11.67;4.07;;;;;;;12.48;81.84;101149.59;5032919;28;20242;-65
2022/11/10 03:15:44;;;;;;;10.47;3.33;;;;;;;12.30;82.46;101152.16;5022570;28;20236;-64
2022/11/10 03:18:12;;;;;;;9.40;3.93;;;;;;;12.18;84.07;101159.44;5018437;28;20224;-65
2022/11/10 03:20:39;;;;;;;10.83;3.80;;;;;;;12.08;84.63;101169.25;5011306;28;20564;-65
2022/11/10 03:23:08;;;;;;;18.67;4.40;;;;;;;11.97;85.13;101167.56;5011629;28;20213;-64
2022/11/10 03:25:37;;;;;;;8.77;3.67;;;;;;;11.86;86.03;101174.84;5012556;28;20213;-64
2022/11/10 03:28:05;;;;;;;13.90;3.73;;;;;;;11.77;86.30;101173.03;5023079;28;20208;-65
2022/11/10 03:30:34;;;;;;;9.17;3.63;;;;;;;11.67;86.89;101175.66;5019766;28;20237;-65
2022/11/10 03:33:02;;;;;;;9.47;3.60;;;;;;;11.61;87.39;101181.50;5013068;28;20235;-64
2022/11/10 03:35:30;;;;;;;10.80;3.47;;;;;;;11.47;88.27;101168.63;5013260;28;20218;-65
2022/11/10 03:37:58;;;;;;;9.27;3.47;;;;;;;11.46;89.06;101183.72;5015561;28;20634;-65
2022/11/10 03:40:26;;;;;;;15.50;3.60;;;;;;;11.45;89.23;101195.31;5023802;28;20290;-65
2022/11/10 03:42:54;;;;;;;9.83;4.07;;;;;;;11.42;89.48;101206.22;5012199;28;20217;-64
2022/11/10 03:45:22;;;;;;;12.70;3.63;;;;;;;11.46;90.00;101212.06;5014843;28;20227;-63
2022/11/10 03:47:51;;;;;;;13.97;3.73;;;;;;;11.52;89.42;101217.69;5010037;28;20217;-64
2022/11/10 03:50:19;;;;;;;8.17;3.77;;;;;;;11.54;89.13;101215.72;5013670;28;20246;-65
2022/11/10 03:52:47;;;;;;;6.17;3.20;;;;;;;11.57;88.92;101207.50;5015730;28;20219;-65
2022/11/10 03:55:17;;;;;;;9.03;3.67;;;;;;;11.60;88.34;101207.25;5012972;28;20832;-64
2022/11/10 03:57:45;;;;;;;11.57;4.00;;;;;;;11.57;88.35;101218.13;5014478;28;20199;-64
2022/11/10 04:00:14;;;;;;;8.27;3.90;;;;;;;11.75;88.79;101228.13;5018618;28;20218;-64
2022/11/10 04:02:42;;;;;;;12.23;3.47;;;;;;;11.93;87.45;101227.31;5014139;28;20215;-65
2022/11/10 04:10:46;;;;;;;12.23;3.90;;;;;;;11.85;85.58;101247.59;5025609;28;20583;-65
2022/11/10 04:15:59;;;;;;;11.57;3.87;;;;;;;11.72;86.00;101245.13;5020988;28;20217;-65
2022/11/10 04:18:28;;;;;;;14.27;3.90;;;;;;;11.58;86.77;101256.16;5011848;28;20220;-65
2022/11/10 04:21:00;;;;;;;9.60;3.70;;;;;;;11.49;87.04;101246.34;5021972;28;20212;-65
2022/11/10 04:23:33;;;;;;;10.87;3.83;;;;;;;11.42;87.87;101247.88;5014501;28;20212;-65
2022/11/10 04:28:51;;;;;;;10.87;4.30;;;;;;;11.46;88.07;101263.38;5022629;28;20326;-64
2022/11/10 04:31:21;;;;;;;10.40;4.33;;;;;;;11.45;88.01;101266.16;5020680;28;20234;-65
2022/11/10 04:33:49;;;;;;;10.07;4.77;;;;;;;11.43;87.81;101261.03;5019125;28;20575;-65
2022/11/10 04:36:20;;;;;;;12.37;4.33;;;;;;;11.39;87.37;101266.72;5015139;28;20305;-64
2022/11/10 04:38:48;;;;;;;13.30;4.80;;;;;;;11.27;88.25;101268.63;5019683;28;20221;-64
2022/11/10 04:41:17;;;;;;;10.37;4.37;;;;;;;11.25;88.12;101267.94;5026189;28;20231;-64
2022/11/10 04:43:45;;;;;;;11.30;4.67;;;;;;;11.18;88.74;101275.56;5017559;28;20218;-65
2022/11/10 04:46:23;;;;;;;13.03;4.73;;;;;;;11.18;89.00;101274.72;5020867;28;20293;-65
2022/11/10 04:48:52;;;;;;;16.93;4.53;;;;;;;11.22;88.83;101281.47;5018805;28;20251;-64
2022/11/10 04:51:24;;;;;;;11.73;4.07;;;;;;;11.37;88.35;101284.59;5015544;28;20226;-64
2022/11/10 04:53:52;;;;;;;18.53;4.73;;;;;;;11.40;87.74;101274.56;5021155;28;20244;-65
2022/11/10 04:56:21;;;;;;;11.97;3.97;;;;;;;11.35;86.84;101265.28;5011056;28;20211;-64
2022/11/10 04:58:49;;;;;;;15.57;5.07;;;;;;;11.25;87.21;101266.13;5016196;28;20801;-65
2022/11/10 05:01:20;;;;;;;12.47;4.73;;;;;;;11.22;87.22;101262.88;5024280;28;20212;-65
2022/11/10 05:03:49;;;;;;;14.53;5.53;;;;;;;11.17;88.01;101278.38;5024269;28;20213;-64
2022/11/10 05:06:18;;;;;;;13.73;4.53;;;;;;;11.08;87.86;101284.47;5016338;28;20229;-65
2022/11/10 05:08:47;;;;;;;8.93;4.57;;;;;;;11.03;88.21;101282.19;5013034;28;20226;-65
2022/11/10 05:11:16;;;;;;;12.50;5.10;;;;;;;11.04;88.95;101283.03;5001440;28;20220;-65
2022/11/10 05:13:45;;;;;;;11.37;4.13;;;;;;;11.09;87.78;101286.97;5003254;28;20826;-65
2022/11/10 05:16:14;;;;;;;12.60;4.80;;;;;;;11.06;87.70;101297.03;4999259;28;20211;-65
2022/11/10 05:18:42;;;;;;;13.63;5.10;;;;;;;11.09;88.51;101291.44;4992197;28;20218;-66
2022/11/10 05:21:10;;;;;;;12.13;4.90;;;;;;;11.24;87.99;101290.97;4994162;28;20207;-64
2022/11/10 05:23:38;;;;;;;17.33;5.80;;;;;;;11.30;87.24;101302.88;4996054;28;20223;-64
2022/11/10 05:26:09;;;;;;;9.07;5.00;;;;;;;11.26;87.06;101312.06;4996189;28;20613;-65
2022/11/10 05:28:38;;;;;;;14.37;5.70;;;;;;;11.36;87.02;101320.09;5002199;28;20348;-64
2022/11/10 05:31:06;;;;;;;15.90;5.87;;;;;;;11.38;86.85;101326.94;4996926;28;20242;-64
2022/11/10 05:33:35;;;;;;;12.50;5.43;;;;;;;11.45;85.64;101325.44;4993659;28;20306;-64
2022/11/10 05:36:03;;;;;;;14.27;5.37;;;;;;;11.41;85.82;101333.81;4996871;28;20251;-64
2022/11/10 05:38:31;;;;;;;9.93;4.93;;;;;;;11.46;85.79;101351.03;4990785;28;20302;-64
2022/11/10 05:40:59;;;;;;;10.67;5.60;;;;;;;11.47;85.71;101363.34;4993927;28;20211;-64
2022/11/10 05:43:29;;;;;;;14.33;6.00;;;;;;;11.52;85.65;101362.97;4998163;28;20303;-64
2022/11/10 05:45:57;;;;;;;13.87;5.03;;;;;;;11.59;85.01;101366.75;4994988;28;20220;-64
2022/11/10 05:48:25;;;;;;;11.33;6.27;;;;;;;11.64;84.60;101372.50;4999988;28;20208;-63
2022/11/10 05:50:53;;;;;;;17.50;5.70;;;;;;;11.70;84.12;101369.31;4992070;28;20292;-63
2022/11/10 05:53:21;;;;;;;18.20;4.70;;;;;;;11.65;83.79;101372.38;4994580;28;20310;-65
2022/11/10 05:55:49;;;;;;;14.87;5.80;;;;;;;11.71;83.87;101378.97;4991684;28;20216;-64
2022/11/10 05:58:17;;;;;;;11.90;5.33;;;;;;;11.64;83.05;101378.66;5000557;28;20219;-63
2022/11/10 06:00:46;;;;;;;12.13;5.57;;;;;;;11.65;83.88;101388.31;5002193;28;20565;-64
2022/11/10 06:03:16;;;;;;;10.30;4.47;;;;;;;11.66;83.00;101392.66;4996217;28;20275;-64
2022/11/10 06:05:45;;;;;;;9.03;4.70;;;;;;;11.50;83.31;101389.66;4998338;28;20248;-64
2022/11/10 06:08:14;;;;;;;15.77;4.67;;;;;;;11.44;84.13;101398.13;4994638;28;20311;-64
2022/11/10 06:10:42;;;;;;;11.43;5.20;;;;;;;11.30;84.43;101396.66;5010987;28;20239;-65
2022/11/10 06:13:10;;;;;;;11.57;5.90;;;;;;;11.27;84.51;101398.72;5013814;28;20223;-65
2022/11/10 06:15:38;;;;;;;13.27;5.70;;;;;;;11.13;84.86;101394.59;5018453;28;20716;-65
2022/11/10 06:18:08;;;;;;;10.33;4.90;;;;;;;11.00;85.63;101399.22;5018282;28;20211;-65
2022/11/10 06:20:36;;;;;;;11.77;5.43;;;;;;;10.91;86.52;101411.44;5015643;28;20265;-64
2022/11/10 06:23:05;;;;;;;13.53;5.73;;;;;;;11.03;87.07;101425.53;5015710;28;20212;-64
2022/11/10 06:25:35;;;;;;;12.17;5.80;;;;;;;11.16;86.76;101441.28;5012981;28;20633;-64
2022/11/10 06:28:04;;;;;;;10.57;5.17;;;;;;;11.22;86.31;101446.91;5020123;28;20235;-64
2022/11/10 06:30:34;;;;;;;11.93;5.50;;;;;;;11.29;85.96;101448.06;5009811;28;20209;-65
2022/11/10 06:33:02;;;;;;;18.30;5.40;;;;;;;11.41;85.55;101448.88;5017628;28;20223;-64
2022/11/10 06:35:32;;;;;;;14.33;6.77;;;;;;;11.50;84.79;101455.22;5011476;28;20309;-64
2022/11/10 06:38:01;;;;;;;13.70;5.80;;;;;;;11.58;84.12;101458.91;5013599;28;20335;-64
2022/11/10 06:40:30;;;;;;;17.17;6.43;;;;;;;11.70;83.77;101468.47;5011932;28;20220;-64
2022/11/10 06:42:59;;;;;;;15.80;6.27;;;;;;;11.78;83.57;101475.00;5008415;28;20240;-63
2022/11/10 06:45:28;;;;;;;10.97;5.80;;;;;;;11.82;83.30;101479.91;5011010;28;20216;-63
2022/11/10 06:48:03;;;;;;;18.73;5.93;;;;;;;11.85;83.13;101476.13;5014065;28;20255;-64
2022/11/10 06:50:33;;;;;;;15.43;5.70;;;;;;;11.89;83.00;101483.69;5024711;28;20215;-65
2022/11/10 06:53:01;;;;;;;12.07;5.53;;;;;;;11.98;82.54;101498.84;5011349;28;20243;-64
2022/11/10 06:55:30;;;;;;;13.17;5.57;;;;;;;12.05;82.17;101505.31;5015832;28;20242;-64
2022/11/10 06:57:58;;;;;;;11.77;5.63;;;;;;;12.09;81.45;101507.72;5012335;28;20801;-64
2022/11/10 07:00:27;;;;;;;13.67;6.03;;;;;;;12.05;81.38;101512.47;5011211;28;20315;-65
2022/11/10 07:03:02;;;;;;;13.30;5.87;;;;;;;11.94;81.24;101517.88;5021008;28;20302;-64
2022/11/10 07:05:33;;;;;;;13.77;5.77;;;;;;;11.88;81.33;101515.72;5019421;28;20215;-64
2022/11/10 07:08:02;;;;;;;12.20;5.43;;;;;;;11.80;82.16;101520.84;5012231;28;20217;-64
2022/11/10 07:10:31;;;;;;;13.87;5.93;;;;;;;11.80;82.02;101520.84;5020831;28;20335;-64
2022/11/10 07:12:59;;;;;;;19.00;6.20;;;;;;;11.81;81.80;101527.84;5017959;28;20286;-64
2022/11/10 07:15:27;;;;;;;12.73;5.63;;;;;;;11.77;81.85;101532.59;5014391;28;20299;-64
2022/11/10 07:17:55;;;;;;;13.07;5.33;;;;;;;11.76;82.32;101525.59;5014488;28;20219;-65
2022/11/10 07:20:24;;;;;;;15.33;5.43;;;;;;;11.81;82.21;101530.50;5014163;28;20672;-64
2022/11/10 07:22:59;;;;;;;15.47;5.83;;;;;;;11.81;81.53;101533.16;5016660;28;20214;-64
2022/11/10 07:25:28;;;;;;;15.37;5.97;;;;;;;11.72;81.95;101531.25;5014129;28;20207;-64
2022/11/10 07:27:57;;;;;;;14.20;6.57;;;;;;;11.71;82.70;101538.38;5023508;28;20312;-64
2022/11/10 07:30:26;;;;;;;11.40;5.93;;;;;;;11.72;82.48;101544.56;5030291;28;20301;-65
2022/11/10 07:32:59;;;;;;;16.33;6.40;;;;;;;11.66;82.82;101549.41;5017578;28;20243;-65
2022/11/10 07:35:28;;;;;;;15.47;7.03;;;;;;;11.67;82.87;101553.75;5016051;28;20208;-63
2022/11/10 07:37:56;;;;;;;15.07;5.87;;;;;;;11.73;82.85;101562.19;5016450;28;20305;-64
2022/11/10 07:40:25;;;;;;;14.40;5.77;;;;;;;11.70;82.22;101558.81;5025700;28;20871;-64
2022/11/10 07:42:53;;;;;;;18.10;6.57;;;;;;;11.67;82.87;101564.41;5018444;28;20657;-64
2022/11/10 07:45:21;;;;;;;15.70;6.30;;;;;;;11.69;82.90;101574.91;5023195;28;20628;-64
2022/11/10 07:47:49;;;;;;;15.20;5.87;;;;;;;11.65;83.12;101582.28;5024307;28;20216;-65
2022/11/10 07:50:17;;;;;;;16.60;6.73;;;;;;;11.69;83.61;101582.88;5016620;28;20283;-64
2022/11/10 07:52:45;;;;;;;14.47;6.27;;;;;;;11.74;83.68;101585.97;5020955;28;20295;-63
2022/11/10 07:55:13;;;;;;;11.87;6.00;;;;;;;11.75;83.72;101592.16;5016500;28;20280;-64
2022/11/10 07:57:42;;;;;;;12.67;5.43;;;;;;;11.76;83.88;101599.16;5019127;28;20217;-65
2022/11/10 08:00:12;;;;;;;15.90;6.30;;;;;;;11.80;83.94;101598.75;5026375;28;20443;-64
2022/11/10 08:02:40;;;;;;;15.43;6.47;;;;;;;11.85;83.79;101596.59;5016570;28;20208;-64
2022/11/10 08:05:08;;;;;;;17.37;6.13;;;;;;;11.87;83.35;101601.78;5014426;28;20211;-64
2022/11/10 08:07:36;;;;;;;19.80;6.80;;;;;;;11.91;83.28;101613.81;5018974;28;20694;-64
2022/11/10 08:10:04;;;;;;;11.57;5.57;;;;;;;11.91;83.29;101603.19;5016899;28;20733;-64
2022/11/10 08:12:32;;;;;;;11.33;4.80;;;;;;;12.00;83.39;101621.03;5023368;28;20251;-64
2022/11/10 08:15:02;;;;;;;10.57;5.27;;;;;;;12.04;82.96;101612.69;5025096;28;20212;-64
2022/11/10 08:17:29;;;;;;;13.57;4.67;;;;;;;12.11;82.63;101625.44;5014761;28;20226;-63
2022/11/10 08:19:57;;;;;;;14.07;5.33;;;;;;;12.10;82.21;101637.88;5014032;28;20209;-64
2022/11/10 08:22:25;;;;;;;12.00;5.07;;;;;;;12.14;82.61;101631.31;5022259;28;20217;-64
2022/11/10 08:24:53;;;;;;;11.20;4.43;;;;;;;12.22;82.36;101634.19;5016304;28;20228;-64
2022/11/10 08:27:20;;;;;;;11.10;4.60;;;;;;;12.29;82.20;101635.34;5021600;28;20624;-65
2022/11/10 08:29:48;;;;;;;10.23;4.07;;;;;;;12.40;81.70;101645.09;5017185;28;20217;-64
2022/11/10 08:32:17;;;;;;;12.67;4.87;;;;;;;12.52;81.91;101649.34;5012171;28;20583;-64
2022/11/10 08:34:45;;;;;;;11.13;4.37;;;;;;;12.61;81.52;101653.88;5014718;28;20752;-65
2022/11/10 08:37:13;;;;;;;15.00;4.17;;;;;;;12.69;81.56;101647.88;5019423;28;20765;-65
2022/11/10 08:39:41;;;;;;;14.83;4.50;;;;;;;12.89;81.26;101647.00;5017712;28;20212;-65
2022/11/10 08:42:08;;;;;;;11.53;4.67;;;;;;;13.29;79.44;101641.66;5016840;28;20235;-65
2022/11/10 08:44:36;;;;;;;18.40;4.80;;;;;;;13.61;77.98;101645.91;5014287;28;20287;-65
2022/11/10 08:47:04;;;;;;;13.50;3.60;;;;;;;13.75;76.58;101646.34;5019897;28;20574;-65
2022/11/10 08:49:33;;;;;;;9.53;4.07;;;;;;;14.11;75.34;101654.59;5021440;28;20228;-64
2022/11/10 08:52:01;;;;;;;22.77;4.73;;;;;;;14.80;72.43;101651.63;5014674;28;20650;-64
2022/11/10 08:54:29;;;;;;;10.57;4.70;;;;;;;15.83;67.48;101644.13;5014682;28;20243;-63
2022/11/10 08:56:57;;;;;;;13.57;4.77;;;;;;;17.00;62.72;101647.25;5025081;28;20262;-64
2022/11/10 08:59:24;;;;;;;14.07;4.30;;;;;;;18.04;58.62;101648.47;5021774;28;20209;-65
2022/11/10 09:01:52;;;;;;;14.20;4.07;;;;;;;19.35;53.95;101660.56;5015766;28;20217;-65
2022/11/10 09:04:20;;;;;;;13.43;4.63;;;;;;;20.78;49.90;101654.34;5027089;28;20212;-65
2022/11/10 09:06:49;;;;;;;13.33;4.20;;;;;;;21.54;47.78;101661.13;5014863;28;20240;-64
2022/11/10 09:09:17;;;;;;;8.30;3.47;;;;;;;21.87;46.71;101661.47;5013836;28;20331;-64
2022/11/10 09:11:45;;;;;;;10.60;3.63;;;;;;;21.95;46.25;101664.88;5017910;28;20208;-65
2022/11/10 09:14:13;;;;;;;10.77;3.78;;;;;;;23.37;43.39;101666.25;5016932;28;20839;-65
2022/11/10 09:16:40;;;;;;;9.07;3.60;;;;;;;24.21;41.45;101679.34;5008545;28;20209;-65
2022/11/10 09:19:08;;;;;;;10.98;3.22;;;;;;;25.53;38.60;101673.56;5026410;28;20212;-66
2022/11/10 09:21:36;;;;;;;9.65;3.85;;;;;;;25.16;38.72;101662.47;5013538;28;20308;-65
2022/11/10 09:24:06;;;;;;;9.98;3.08;;;;;;;25.35;38.67;101677.84;5015805;28;20224;-65
2022/11/10 09:26:34;;;;;;;12.50;3.65;;;;;;;25.79;37.80;101676.97;5015859;28;20251;-65
2022/11/10 09:29:02;;;;;;;7.72;3.20;;;;;;;26.86;35.78;101680.44;5021868;28;20650;-65
2022/11/10 09:31:30;;;;;;;10.80;3.17;;;;;;;26.63;35.72;101683.84;5016790;28;20224;-65
2022/11/10 09:33:58;;;;;;;7.53;2.60;;;;;;;26.43;36.05;101686.75;5016822;28;20600;-65
2022/11/10 09:36:25;;;;;;;13.07;3.17;;;;;;;26.60;35.85;101678.84;5018552;28;20322;-65
2022/11/10 09:38:53;;;;;;;9.05;3.40;;;;;;;26.31;36.29;101683.06;5009374;28;20209;-65
2022/11/10 09:41:22;;;;;;;8.73;2.55;;;;;;;25.63;37.16;101688.38;5020519;28;20654;-65
2022/11/10 09:44:01;;;;;;;9.85;2.67;;;;;;;24.31;38.64;101693.31;5021671;28;20263;-65
2022/11/10 09:46:35;;;;;;;8.40;2.95;;;;;;;22.67;41.96;101691.66;5017924;28;20216;-65
2022/11/10 09:49:09;;;;;;;9.80;3.20;;;;;;;21.48;44.38;101692.41;5010906;28;20207;-65
2022/11/10 09:51:40;;;;;;;7.50;2.78;;;;;;;20.62;46.29;101699.31;5015755;28;20209;-65
2022/11/10 09:54:29;;;;;;;9.65;2.70;;;;;;;20.13;47.67;101709.69;5019096;28;20256;-65
2022/11/10 09:57:00;;;;;;;9.85;2.67;;;;;;;19.91;48.84;101705.97;5014593;28;20220;-64
2022/11/10 09:59:31;;;;;;;9.75;2.47;;;;;;;19.68;49.40;101699.75;5009654;28;20565;-65
2022/11/10 10:02:02;;;;;;;6.72;2.28;;;;;;;20.07;48.68;101702.31;5015597;28;20701;-66
2022/11/10 10:04:46;;;;;;;6.32;2.50;;;;;;;20.26;48.71;101709.06;5017865;28;20296;-68
2022/11/10 10:07:25;;;;;;;8.27;2.97;;;;;;;20.78;48.20;101710.94;5019930;28;20228;-65
2022/11/10 10:10:00;;;;;;;10.95;3.33;;;;;;;21.59;47.01;101701.88;5015044;28;20241;-64
2022/11/10 10:12:49;;;;;;;11.45;3.22;;;;;;;23.78;42.79;101711.34;5013371;28;20735;-65
2022/11/10 10:15:28;;;;;;;9.98;3.50;;;;;;;26.93;36.47;101700.28;5012853;28;20225;-65
2022/11/10 10:18:09;;;;;;;7.28;2.80;;;;;;;29.83;31.83;101701.66;5010812;28;20196;-64
2022/11/10 10:20:49;;;;;;;10.77;2.85;;;;;;;30.78;29.54;101691.72;5011633;28;20217;-66
2022/11/10 10:23:24;;;;;;;6.60;2.50;;;;;;;28.53;32.12;101704.09;5012389;28;20216;-65
2022/11/10 10:26:15;;;;;;;6.20;2.33;;;;;;;25.60;36.99;101717.84;5018878;28;20224;-65
2022/11/10 10:28:46;;;;;;;8.65;2.70;;;;;;;24.06;40.23;101714.75;5017794;28;20200;-65
2022/11/10 10:31:19;;;;;;;8.07;2.70;;;;;;;23.53;41.43;101711.91;5018512;28;20209;-65
2022/11/10 10:33:48;;;;;;;10.20;2.55;;;;;;;23.40;41.85;101711.81;5012609;28;20244;-65
2022/11/10 10:36:19;;;;;;;9.98;2.88;;;;;;;23.39;42.00;101714.75;5018909;28;20208;-64
2022/11/10 10:38:50;;;;;;;7.60;2.10;;;;;;;23.36;42.02;101721.41;5013076;28;20260;-65
2022/11/10 10:41:24;;;;;;;10.68;2.60;;;;;;;23.00;42.70;101716.22;5013214;28;20197;-65
2022/11/10 10:43:56;;;;;;;9.23;2.53;;;;;;;22.29;44.25;101712.78;5013967;28;20200;-65
2022/11/10 10:46:25;;;;;;;6.47;2.42;;;;;;;21.59;45.89;101710.81;5017309;28;20548;-65
2022/11/10 10:49:12;;;;;;;10.45;2.45;;;;;;;20.94;47.47;101705.38;5018181;28;20256;-65
2022/11/10 10:52:05;;;;;;;8.18;2.90;;;;;;;21.10;47.87;101709.75;5011786;28;20336;-64
2022/11/10 10:54:35;;;;;;;5.20;2.17;;;;;;;21.38;46.56;101713.44;5017205;28;20227;-64
2022/11/10 10:57:06;;;;;;;15.05;3.67;;;;;;;21.89;45.89;101711.56;5013018;28;20209;-64
2022/11/10 10:59:35;;;;;;;6.47;2.58;;;;;;;22.68;43.90;101720.38;5015653;28;20208;-64
2022/11/10 11:02:03;;;;;;;8.90;2.40;;;;;;;23.96;41.47;101717.00;5019744;28;20259;-64
2022/11/10 11:04:33;;;;;;;5.38;1.92;;;;;;;24.71;39.85;101705.81;5021019;28;20247;-64
2022/11/10 11:07:03;;;;;;;7.25;2.13;;;;;;;24.71;39.73;101707.69;5019529;28;20214;-65
2022/11/10 11:09:39;;;;;;;8.45;2.70;;;;;;;24.81;38.91;101708.03;5012223;28;20287;-65
2022/11/10 11:12:10;;;;;;;8.27;2.10;;;;;;;24.93;38.44;101709.09;5013594;28;20268;-65
2022/11/10 11:14:40;;;;;;;5.65;2.08;;;;;;;25.25;38.42;101699.16;5018153;28;20229;-65
2022/11/10 11:17:17;;;;;;;8.10;2.30;;;;;;;26.69;35.90;101690.25;5013954;28;20252;-65
2022/11/10 11:19:45;;;;;;;8.13;1.90;;;;;;;26.63;35.52;101702.06;5012027;28;20213;-65
2022/11/10 11:22:45;;;;;;;7.60;1.65;;;;;;;25.96;35.61;101701.72;5010356;28;20217;-65
2022/11/10 11:25:22;;;;;;;6.28;1.90;;;;;;;25.60;36.80;101701.53;5014712;28;20216;-65
2022/11/10 11:28:02;;;;;;;7.85;1.90;;;;;;;25.27;37.74;101702.50;5016839;28;20574;-65
2022/11/10 11:30:46;;;;;;;5.05;2.17;;;;;;;24.86;37.98;101708.25;5014990;28;20231;-65
2022/11/10 11:33:33;;;;;;;4.70;1.38;;;;;;;24.41;38.31;101711.88;5015024;28;20350;-65
2022/11/10 11:36:09;;;;;;;8.40;2.08;;;;;;;23.60;39.23;101709.22;5012466;28;20233;-65
2022/11/10 11:38:50;;;;;;;7.22;2.00;;;;;;;23.47;39.92;101715.41;5016447;28;20204;-65
2022/11/10 11:41:30;;;;;;;9.43;2.30;;;;;;;24.50;38.27;101721.44;5016395;28;20213;-66
2022/11/10 11:44:19;;;;;;;6.97;1.98;;;;;;;25.58;36.19;101714.50;5016415;28;20308;-65
2022/11/10 11:46:59;;;;;;;4.30;1.50;;;;;;;26.36;35.28;101718.63;5015884;28;20276;-65